Belmore, Ohio
Current Conditions -  °F | °C
As of 9:53 PM on Monday 22 Dec 2014 (Local Time) from KFDY Reporting Station
Overcast Overcast  
Wind Chill: 32°   Ceiling: 9000
Heat Index: 39°   Visibility: 8mi
Dew Point: 34°   Wind: 10mph
Humidity: 82%   Direction: 90°E
Pressure: 29.79"   Gusts: NA
Location:  41.15°N, 83.94°W
Report Text: KFDY 230253Z AUTO 09009KT 8SM FEW070 BKN090 OVC110 04/01 A2979 RMK AO2 RAE04 SLP092 P0000 60000 T00390011 58020
Loading
Personal Weather Stations






























Interactive Weather Map New forecast layout! Learn more

10-Day Weather Forecast

Advertisements
Track Severe Weather on mobile